Terminal Aerodrome Forecast
Issued by NWS Sterling, VA

Current Version | Previous Version | Graphics & Text | Print | Product List | Glossary On
Versions: 1 2 3 4 5 6 7 8 9 10 11 12 13 14 15 16 17 18 19 20 21 22 23
412
FTUS41 KLWX 150918 AAB
TAFDCA
TAF AMD
KDCA 150918Z 1509/1606 21009KT P6SM OVC005
     FM151500 20009KT P6SM BKN008
     FM151700 20011KT P6SM SCT010
     FM151900 20011G19KT P6SM FEW250
     FM160200 23010KT P6SM BKN045
     FM160500 29009KT P6SM BKN035=

USA.gov is the U.S. government's official web portal to all federal, state and local government web resources and services.